sensor_id;sensor_type;location;lat;lon;timestamp;pressure;altitude;pressure_sealevel;temperature;humidity
73981;BME280;62348;51.412;5.436;2022-07-26T00:00:54;101217.31;;;18.02;65.16
73981;BME280;62348;51.412;5.436;2022-07-26T00:03:20;101222.56;;;17.98;65.83
73981;BME280;62348;51.412;5.436;2022-07-26T00:05:45;101215.19;;;17.99;65.47
73981;BME280;62348;51.412;5.436;2022-07-26T00:08:11;101218.63;;;17.90;65.79
73981;BME280;62348;51.412;5.436;2022-07-26T00:10:38;101215.88;;;17.90;66.00
73981;BME280;62348;51.412;5.436;2022-07-26T00:13:04;101225.44;;;17.93;65.91
73981;BME280;62348;51.412;5.436;2022-07-26T00:15:29;101224.09;;;17.90;65.92
73981;BME280;62348;51.412;5.436;2022-07-26T00:17:55;101219.94;;;17.93;66.06
73981;BME280;62348;51.412;5.436;2022-07-26T00:20:20;101221.06;;;17.92;65.87
73981;BME280;62348;51.412;5.436;2022-07-26T00:22:46;101220.75;;;17.93;66.22
73981;BME280;62348;51.412;5.436;2022-07-26T00:25:11;101218.63;;;17.90;66.33
73981;BME280;62348;51.412;5.436;2022-07-26T00:27:36;101227.66;;;17.91;65.89
73981;BME280;62348;51.412;5.436;2022-07-26T00:30:04;101231.31;;;17.81;66.51
73981;BME280;62348;51.412;5.436;2022-07-26T00:32:30;101230.75;;;17.84;66.85
73981;BME280;62348;51.412;5.436;2022-07-26T00:34:56;101228.53;;;17.86;66.65
73981;BME280;62348;51.412;5.436;2022-07-26T00:37:21;101229.94;;;17.84;66.80
73981;BME280;62348;51.412;5.436;2022-07-26T00:39:47;101230.47;;;17.86;66.84
73981;BME280;62348;51.412;5.436;2022-07-26T00:42:13;101225.22;;;17.89;66.80
73981;BME280;62348;51.412;5.436;2022-07-26T00:44:44;101230.19;;;17.87;66.54
73981;BME280;62348;51.412;5.436;2022-07-26T00:47:10;101223.78;;;17.92;66.74
73981;BME280;62348;51.412;5.436;2022-07-26T00:49:35;101225.00;;;17.86;67.13
73981;BME280;62348;51.412;5.436;2022-07-26T00:52:03;101225.06;;;17.81;67.14
73981;BME280;62348;51.412;5.436;2022-07-26T00:54:29;101223.13;;;17.81;66.88
73981;BME280;62348;51.412;5.436;2022-07-26T00:56:54;101226.09;;;17.85;66.76
73981;BME280;62348;51.412;5.436;2022-07-26T00:59:20;101230.53;;;17.81;66.81
73981;BME280;62348;51.412;5.436;2022-07-26T01:01:46;101223.38;;;17.85;67.39
73981;BME280;62348;51.412;5.436;2022-07-26T01:04:11;101231.66;;;17.80;67.17
73981;BME280;62348;51.412;5.436;2022-07-26T01:06:37;101232.16;;;17.82;67.00
73981;BME280;62348;51.412;5.436;2022-07-26T01:09:03;101229.66;;;17.85;67.00
73981;BME280;62348;51.412;5.436;2022-07-26T01:11:30;101223.75;;;17.78;67.38
73981;BME280;62348;51.412;5.436;2022-07-26T01:13:55;101225.06;;;17.81;67.13
73981;BME280;62348;51.412;5.436;2022-07-26T01:16:21;101226.38;;;17.83;67.05
73981;BME280;62348;51.412;5.436;2022-07-26T01:18:46;101221.88;;;17.73;67.38
73981;BME280;62348;51.412;5.436;2022-07-26T01:21:12;101226.19;;;17.80;67.35
73981;BME280;62348;51.412;5.436;2022-07-26T01:23:37;101224.75;;;17.82;67.54
73981;BME280;62348;51.412;5.436;2022-07-26T01:26:04;101216.03;;;17.80;67.63
73981;BME280;62348;51.412;5.436;2022-07-26T01:28:29;101211.66;;;17.79;67.86
73981;BME280;62348;51.412;5.436;2022-07-26T01:30:55;101213.91;;;17.77;67.95
73981;BME280;62348;51.412;5.436;2022-07-26T01:33:21;101220.91;;;17.83;67.61
73981;BME280;62348;51.412;5.436;2022-07-26T01:35:46;101207.16;;;17.88;67.67
73981;BME280;62348;51.412;5.436;2022-07-26T01:38:12;101203.69;;;17.83;68.18
73981;BME280;62348;51.412;5.436;2022-07-26T01:40:37;101201.13;;;17.72;68.30
73981;BME280;62348;51.412;5.436;2022-07-26T01:43:03;101202.88;;;17.82;68.20
73981;BME280;62348;51.412;5.436;2022-07-26T01:45:28;101211.53;;;17.89;68.47
73981;BME280;62348;51.412;5.436;2022-07-26T01:47:54;101205.31;;;17.84;68.16
73981;BME280;62348;51.412;5.436;2022-07-26T01:50:19;101206.06;;;17.89;68.58
73981;BME280;62348;51.412;5.436;2022-07-26T01:52:45;101210.53;;;17.85;68.32
73981;BME280;62348;51.412;5.436;2022-07-26T01:55:10;101213.25;;;17.85;68.37
73981;BME280;62348;51.412;5.436;2022-07-26T01:57:36;101215.88;;;17.90;68.35
73981;BME280;62348;51.412;5.436;2022-07-26T02:00:04;101221.34;;;17.90;68.64
73981;BME280;62348;51.412;5.436;2022-07-26T02:02:30;101215.28;;;17.93;68.33
73981;BME280;62348;51.412;5.436;2022-07-26T02:04:55;101222.78;;;17.88;68.79
73981;BME280;62348;51.412;5.436;2022-07-26T02:07:24;101225.50;;;17.88;68.68
73981;BME280;62348;51.412;5.436;2022-07-26T02:09:50;101223.78;;;17.92;68.74
73981;BME280;62348;51.412;5.436;2022-07-26T02:12:15;101223.78;;;17.92;68.61
73981;BME280;62348;51.412;5.436;2022-07-26T02:14:41;101226.81;;;17.90;68.90
73981;BME280;62348;51.412;5.436;2022-07-26T02:17:06;101231.50;;;17.90;68.73
73981;BME280;62348;51.412;5.436;2022-07-26T02:19:32;101232.00;;;17.92;68.67
73981;BME280;62348;51.412;5.436;2022-07-26T02:21:58;101230.97;;;17.88;69.30
73981;BME280;62348;51.412;5.436;2022-07-26T02:24:24;101232.97;;;17.82;69.31
73981;BME280;62348;51.412;5.436;2022-07-26T02:26:52;101235.31;;;17.89;69.33
73981;BME280;62348;51.412;5.436;2022-07-26T02:29:18;101234.72;;;17.92;69.17
73981;BME280;62348;51.412;5.436;2022-07-26T02:31:43;101237.75;;;17.90;69.30
73981;BME280;62348;51.412;5.436;2022-07-26T02:34:08;101235.13;;;17.85;69.37
73981;BME280;62348;51.412;5.436;2022-07-26T02:36:34;101234.72;;;17.92;69.17
73981;BME280;62348;51.412;5.436;2022-07-26T02:38:59;101236.66;;;17.91;69.26
73981;BME280;62348;51.412;5.436;2022-07-26T02:41:25;101239.69;;;17.90;69.63
73981;BME280;62348;51.412;5.436;2022-07-26T02:43:50;101248.19;;;17.88;69.60
73981;BME280;62348;51.412;5.436;2022-07-26T02:46:15;101240.59;;;17.85;69.69
73981;BME280;62348;51.412;5.436;2022-07-26T02:48:41;101240.34;;;17.82;69.95
73981;BME280;62348;51.412;5.436;2022-07-26T02:51:06;101251.59;;;17.80;70.11
73981;BME280;62348;51.412;5.436;2022-07-26T02:53:32;101240.59;;;17.85;70.02
73981;BME280;62348;51.412;5.436;2022-07-26T02:55:57;101247.97;;;17.85;70.00
73981;BME280;62348;51.412;5.436;2022-07-26T02:58:22;101248.81;;;17.85;70.02
73981;BME280;62348;51.412;5.436;2022-07-26T03:00:49;101260.84;;;17.84;70.29
73981;BME280;62348;51.412;5.436;2022-07-26T03:03:14;101257.03;;;17.85;70.32
73981;BME280;62348;51.412;5.436;2022-07-26T03:05:40;101254.34;;;17.80;70.21
73981;BME280;62348;51.412;5.436;2022-07-26T03:08:06;101246.94;;;17.81;70.47
73981;BME280;62348;51.412;5.436;2022-07-26T03:10:31;101250.47;;;17.81;70.40
73981;BME280;62348;51.412;5.436;2022-07-26T03:12:57;101257.06;;;17.80;70.64
73981;BME280;62348;51.412;5.436;2022-07-26T03:15:22;101259.06;;;17.74;70.84
73981;BME280;62348;51.412;5.436;2022-07-26T03:17:48;101264.25;;;17.76;70.77
73981;BME280;62348;51.412;5.436;2022-07-26T03:20:14;101265.34;;;17.75;70.83
73981;BME280;62348;51.412;5.436;2022-07-26T03:22:40;101269.72;;;17.76;70.92
73981;BME280;62348;51.412;5.436;2022-07-26T03:25:05;101274.34;;;17.75;70.88
73981;BME280;62348;51.412;5.436;2022-07-26T03:27:31;101271.84;;;17.79;70.88
73981;BME280;62348;51.412;5.436;2022-07-26T03:29:56;101277.69;;;17.72;70.86
73981;BME280;62348;51.412;5.436;2022-07-26T03:32:22;101279.94;;;17.70;71.04
73981;BME280;62348;51.412;5.436;2022-07-26T03:34:48;101281.25;;;17.73;71.08
73981;BME280;62348;51.412;5.436;2022-07-26T03:37:13;101280.16;;;17.74;71.14
73981;BME280;62348;51.412;5.436;2022-07-26T03:39:39;101279.63;;;17.72;71.03
73981;BME280;62348;51.412;5.436;2022-07-26T03:42:04;101285.91;;;17.72;71.15
73981;BME280;62348;51.412;5.436;2022-07-26T03:44:30;101282.38;;;17.72;71.28
73981;BME280;62348;51.412;5.436;2022-07-26T03:46:55;101283.97;;;17.73;71.18
73981;BME280;62348;51.412;5.436;2022-07-26T03:49:21;101288.56;;;17.78;71.30
73981;BME280;62348;51.412;5.436;2022-07-26T03:51:46;101289.66;;;17.76;71.14
73981;BME280;62348;51.412;5.436;2022-07-26T03:54:12;101290.25;;;17.73;71.64
73981;BME280;62348;51.412;5.436;2022-07-26T03:56:39;101288.88;;;17.76;71.32
73981;BME280;62348;51.412;5.436;2022-07-26T03:59:06;101292.69;;;17.75;71.41
73981;BME280;62348;51.412;5.436;2022-07-26T04:01:32;101292.91;;;17.79;71.23
73981;BME280;62348;51.412;5.436;2022-07-26T04:04:03;101296.56;;;17.74;71.79
73981;BME280;62348;51.412;5.436;2022-07-26T04:06:29;101295.44;;;17.75;71.81
73981;BME280;62348;51.412;5.436;2022-07-26T04:08:54;101292.41;;;17.76;71.52
73981;BME280;62348;51.412;5.436;2022-07-26T04:11:20;101289.22;;;17.69;72.05
73981;BME280;62348;51.412;5.436;2022-07-26T04:13:45;101296.03;;;17.72;71.92
73981;BME280;62348;51.412;5.436;2022-07-26T04:16:11;101297.34;;;17.74;71.72
73981;BME280;62348;51.412;5.436;2022-07-26T04:18:36;101297.34;;;17.74;71.83
73981;BME280;62348;51.412;5.436;2022-07-26T04:21:02;101296.63;;;17.69;72.24
73981;BME280;62348;51.412;5.436;2022-07-26T04:23:28;101305.06;;;17.72;72.10
73981;BME280;62348;51.412;5.436;2022-07-26T04:25:53;101308.38;;;17.69;72.16
73981;BME280;62348;51.412;5.436;2022-07-26T04:28:19;101306.25;;;17.66;72.76
73981;BME280;62348;51.412;5.436;2022-07-26T04:30:44;101320.44;;;17.68;72.92
73981;BME280;62348;51.412;5.436;2022-07-26T04:33:10;101311.09;;;17.69;72.38
73981;BME280;62348;51.412;5.436;2022-07-26T04:35:36;101316.00;;;17.72;72.71
73981;BME280;62348;51.412;5.436;2022-07-26T04:38:01;101317.59;;;17.73;72.75
73981;BME280;62348;51.412;5.436;2022-07-26T04:40:28;101309.72;;;17.72;72.33
73981;BME280;62348;51.412;5.436;2022-07-26T04:42:58;101314.56;;;17.75;72.74
73981;BME280;62348;51.412;5.436;2022-07-26T04:45:24;101308.22;;;17.80;72.36
73981;BME280;62348;51.412;5.436;2022-07-26T04:47:49;101319.53;;;17.73;72.76
73981;BME280;62348;51.412;5.436;2022-07-26T04:50:19;101314.00;;;17.78;72.46
73981;BME280;62348;51.412;5.436;2022-07-26T04:52:45;101321.06;;;17.79;72.82
73981;BME280;62348;51.412;5.436;2022-07-26T04:55:11;101315.56;;;17.84;72.34
73981;BME280;62348;51.412;5.436;2022-07-26T04:57:36;101324.28;;;17.86;72.77
73981;BME280;62348;51.412;5.436;2022-07-26T05:00:05;101327.31;;;17.85;72.75
73981;BME280;62348;51.412;5.436;2022-07-26T05:02:31;101322.03;;;17.88;72.86
73981;BME280;62348;51.412;5.436;2022-07-26T05:04:56;101327.00;;;17.86;72.71
73981;BME280;62348;51.412;5.436;2022-07-26T05:07:22;101325.28;;;17.90;72.59
73981;BME280;62348;51.412;5.436;2022-07-26T05:09:47;101318.22;;;17.89;72.57
73981;BME280;62348;51.412;5.436;2022-07-26T05:12:12;101322.56;;;17.90;72.69
73981;BME280;62348;51.412;5.436;2022-07-26T05:14:38;101329.66;;;17.91;72.41
73981;BME280;62348;51.412;5.436;2022-07-26T05:17:04;101323.59;;;17.94;72.70
73981;BME280;62348;51.412;5.436;2022-07-26T05:19:29;101330.47;;;17.92;72.89
73981;BME280;62348;51.412;5.436;2022-07-26T05:21:55;101332.41;;;17.91;72.71
73981;BME280;62348;51.412;5.436;2022-07-26T05:24:20;101338.38;;;17.93;72.80
73981;BME280;62348;51.412;5.436;2022-07-26T05:26:45;101340.31;;;17.93;72.27
73981;BME280;62348;51.412;5.436;2022-07-26T05:29:11;101343.28;;;17.97;72.21
73981;BME280;62348;51.412;5.436;2022-07-26T05:31:36;101349.25;;;17.99;72.54
73981;BME280;62348;51.412;5.436;2022-07-26T05:34:02;101359.38;;;17.98;72.39
73981;BME280;62348;51.412;5.436;2022-07-26T05:36:28;101356.94;;;17.97;72.42
73981;BME280;62348;51.412;5.436;2022-07-26T05:38:53;101350.56;;;18.01;71.92
73981;BME280;62348;51.412;5.436;2022-07-26T05:41:19;101350.50;;;18.06;71.95
73981;BME280;62348;51.412;5.436;2022-07-26T05:43:44;101355.13;;;18.06;71.86
73981;BME280;62348;51.412;5.436;2022-07-26T05:46:10;101353.97;;;18.12;71.76
73981;BME280;62348;51.412;5.436;2022-07-26T05:48:37;101354.91;;;18.21;71.60
73981;BME280;62348;51.412;5.436;2022-07-26T05:51:03;101364.94;;;18.26;71.28
73981;BME280;62348;51.412;5.436;2022-07-26T05:53:28;101367.28;;;18.32;71.15
73981;BME280;62348;51.412;5.436;2022-07-26T05:55:54;101369.13;;;18.37;71.17
73981;BME280;62348;51.412;5.436;2022-07-26T05:58:19;101365.47;;;18.42;70.52
73981;BME280;62348;51.412;5.436;2022-07-26T06:00:45;101373.59;;;18.47;70.70
73981;BME280;62348;51.412;5.436;2022-07-26T06:03:10;101368.94;;;18.47;70.59
73981;BME280;62348;51.412;5.436;2022-07-26T06:05:49;101374.03;;;18.54;70.83
73981;BME280;62348;51.412;5.436;2022-07-26T06:08:16;101382.97;;;18.60;71.10
73981;BME280;62348;51.412;5.436;2022-07-26T06:10:42;101379.09;;;18.61;70.25
73981;BME280;62348;51.412;5.436;2022-07-26T06:13:08;101371.31;;;18.68;70.40
73981;BME280;62348;51.412;5.436;2022-07-26T06:15:33;101375.16;;;18.67;69.98
73981;BME280;62348;51.412;5.436;2022-07-26T06:17:58;101377.59;;;18.68;70.15
73981;BME280;62348;51.412;5.436;2022-07-26T06:20:24;101385.41;;;18.75;69.80
73981;BME280;62348;51.412;5.436;2022-07-26T06:22:49;101386.72;;;18.78;70.12
73981;BME280;62348;51.412;5.436;2022-07-26T06:25:16;101388.81;;;18.86;69.85
73981;BME280;62348;51.412;5.436;2022-07-26T06:27:41;101390.72;;;19.13;69.20
73981;BME280;62348;51.412;5.436;2022-07-26T06:30:07;101388.63;;;19.74;67.67
73981;BME280;62348;51.412;5.436;2022-07-26T06:32:33;101393.56;;;20.31;65.43
73981;BME280;62348;51.412;5.436;2022-07-26T06:34:58;101394.78;;;20.70;64.17
73981;BME280;62348;51.412;5.436;2022-07-26T06:37:23;101392.16;;;20.96;62.54
73981;BME280;62348;51.412;5.436;2022-07-26T06:39:49;101390.69;;;20.99;62.42
73981;BME280;62348;51.412;5.436;2022-07-26T06:42:14;101392.22;;;20.74;62.41
73981;BME280;62348;51.412;5.436;2022-07-26T06:44:39;101392.78;;;20.39;63.39
73981;BME280;62348;51.412;5.436;2022-07-26T06:47:05;101396.94;;;20.28;64.09
73981;BME280;62348;51.412;5.436;2022-07-26T06:49:30;101397.31;;;20.13;64.70
73981;BME280;62348;51.412;5.436;2022-07-26T06:51:56;101395.44;;;20.22;64.99
73981;BME280;62348;51.412;5.436;2022-07-26T06:54:22;101392.34;;;20.15;64.24
73981;BME280;62348;51.412;5.436;2022-07-26T06:56:48;101405.22;;;19.92;64.68
73981;BME280;62348;51.412;5.436;2022-07-26T06:59:13;101406.78;;;19.84;65.16
73981;BME280;62348;51.412;5.436;2022-07-26T07:01:38;101405.28;;;19.78;65.30
73981;BME280;62348;51.412;5.436;2022-07-26T07:04:04;101412.06;;;19.80;64.89
73981;BME280;62348;51.412;5.436;2022-07-26T07:06:29;101408.13;;;19.73;64.34
73981;BME280;62348;51.412;5.436;2022-07-26T07:08:55;101405.03;;;19.88;64.13
73981;BME280;62348;51.412;5.436;2022-07-26T07:11:20;101411.97;;;20.08;62.77
73981;BME280;62348;51.412;5.436;2022-07-26T07:13:45;101414.22;;;20.06;63.16
73981;BME280;62348;51.412;5.436;2022-07-26T07:16:11;101408.25;;;20.04;62.65
73981;BME280;62348;51.412;5.436;2022-07-26T07:18:36;101414.81;;;20.17;63.39
73981;BME280;62348;51.412;5.436;2022-07-26T07:21:02;101413.28;;;20.33;62.16
73981;BME280;62348;51.412;5.436;2022-07-26T07:23:27;101423.25;;;20.52;60.76
73981;BME280;62348;51.412;5.436;2022-07-26T07:25:53;101415.94;;;20.70;59.90
73981;BME280;62348;51.412;5.436;2022-07-26T07:28:18;101417.66;;;20.88;59.93
73981;BME280;62348;51.412;5.436;2022-07-26T07:30:44;101416.91;;;20.96;59.20
73981;BME280;62348;51.412;5.436;2022-07-26T07:33:09;101423.63;;;20.81;58.30
73981;BME280;62348;51.412;5.436;2022-07-26T07:35:38;101428.69;;;20.65;58.48
73981;BME280;62348;51.412;5.436;2022-07-26T07:38:04;101426.78;;;20.66;58.63
73981;BME280;62348;51.412;5.436;2022-07-26T07:40:30;101429.59;;;20.83;57.42
73981;BME280;62348;51.412;5.436;2022-07-26T07:42:56;101429.19;;;20.99;57.72
73981;BME280;62348;51.412;5.436;2022-07-26T07:45:21;101418.25;;;21.16;56.83
73981;BME280;62348;51.412;5.436;2022-07-26T07:47:47;101439.31;;;21.30;56.56
73981;BME280;62348;51.412;5.436;2022-07-26T07:50:12;101430.25;;;21.29;56.09
73981;BME280;62348;51.412;5.436;2022-07-26T07:52:38;101431.72;;;21.35;55.91
73981;BME280;62348;51.412;5.436;2022-07-26T07:55:03;101423.34;;;21.49;55.53
73981;BME280;62348;51.412;5.436;2022-07-26T07:57:29;101420.16;;;21.56;55.57
73981;BME280;62348;51.412;5.436;2022-07-26T07:59:54;101423.25;;;21.63;54.99
73981;BME280;62348;51.412;5.436;2022-07-26T08:02:20;101421.78;;;21.66;55.14
73981;BME280;62348;51.412;5.436;2022-07-26T08:04:45;101424.38;;;21.79;54.86
73981;BME280;62348;51.412;5.436;2022-07-26T08:07:11;101431.84;;;21.88;53.85
73981;BME280;62348;51.412;5.436;2022-07-26T08:09:36;101429.91;;;21.97;53.05
73981;BME280;62348;51.412;5.436;2022-07-26T08:12:02;101426.47;;;22.17;52.59
73981;BME280;62348;51.412;5.436;2022-07-26T08:14:27;101424.69;;;22.13;52.20
73981;BME280;62348;51.412;5.436;2022-07-26T08:16:52;101430.03;;;22.09;53.11
73981;BME280;62348;51.412;5.436;2022-07-26T08:19:18;101436.38;;;21.83;53.09
73981;BME280;62348;51.412;5.436;2022-07-26T08:21:43;101429.88;;;21.62;53.00
73981;BME280;62348;51.412;5.436;2022-07-26T08:24:10;101437.63;;;21.60;54.02
73981;BME280;62348;51.412;5.436;2022-07-26T08:26:36;101435.50;;;21.57;54.67
73981;BME280;62348;51.412;5.436;2022-07-26T08:29:02;101443.75;;;21.48;55.36
73981;BME280;62348;51.412;5.436;2022-07-26T08:31:27;101446.13;;;21.41;55.64
73981;BME280;62348;51.412;5.436;2022-07-26T08:33:53;101440.28;;;21.34;55.31
73981;BME280;62348;51.412;5.436;2022-07-26T08:36:18;101450.31;;;21.30;56.09
73981;BME280;62348;51.412;5.436;2022-07-26T08:38:44;101453.66;;;21.18;55.90
73981;BME280;62348;51.412;5.436;2022-07-26T08:41:10;101451.53;;;21.15;56.82
73981;BME280;62348;51.412;5.436;2022-07-26T08:43:35;101459.97;;;21.10;56.93
73981;BME280;62348;51.412;5.436;2022-07-26T08:46:01;101462.34;;;21.02;57.63
73981;BME280;62348;51.412;5.436;2022-07-26T08:48:27;101471.19;;;20.91;58.38
73981;BME280;62348;51.412;5.436;2022-07-26T08:50:54;101479.19;;;20.78;59.04
73981;BME280;62348;51.412;5.436;2022-07-26T08:53:20;101475.22;;;20.62;58.75
73981;BME280;62348;51.412;5.436;2022-07-26T08:55:45;101481.25;;;20.50;59.04
73981;BME280;62348;51.412;5.436;2022-07-26T08:58:11;101477.56;;;20.32;59.82
73981;BME280;62348;51.412;5.436;2022-07-26T09:00:36;101486.63;;;20.33;61.54
73981;BME280;62348;51.412;5.436;2022-07-26T09:03:02;101493.78;;;20.20;62.73
73981;BME280;62348;51.412;5.436;2022-07-26T09:05:35;101488.59;;;20.18;63.61
73981;BME280;62348;51.412;5.436;2022-07-26T09:08:24;101489.91;;;20.21;62.80
73981;BME280;62348;51.412;5.436;2022-07-26T09:10:50;101487.91;;;20.13;64.00
73981;BME280;62348;51.412;5.436;2022-07-26T09:13:16;101491.16;;;20.15;64.90
73981;BME280;62348;51.412;5.436;2022-07-26T09:15:41;101498.19;;;20.07;64.51
73981;BME280;62348;51.412;5.436;2022-07-26T09:18:24;101501.94;;;20.11;63.20
73981;BME280;62348;51.412;5.436;2022-07-26T09:20:49;101499.22;;;20.11;65.06
73981;BME280;62348;51.412;5.436;2022-07-26T09:23:15;101505.69;;;20.15;64.41
73981;BME280;62348;51.412;5.436;2022-07-26T09:25:42;101501.50;;;20.18;63.51
73981;BME280;62348;51.412;5.436;2022-07-26T09:31:12;101513.97;;;20.38;62.56
73981;BME280;62348;51.412;5.436;2022-07-26T09:33:49;101512.25;;;20.51;63.64
73981;BME280;62348;51.412;5.436;2022-07-26T09:36:16;101507.41;;;20.47;62.06
73981;BME280;62348;51.412;5.436;2022-07-26T09:38:44;101506.75;;;20.64;61.66
73981;BME280;62348;51.412;5.436;2022-07-26T09:41:24;101505.00;;;21.00;60.67
73981;BME280;62348;51.412;5.436;2022-07-26T09:43:51;101502.38;;;21.26;61.05
73981;BME280;62348;51.412;5.436;2022-07-26T09:46:17;101493.19;;;21.71;60.20
73981;BME280;62348;51.412;5.436;2022-07-26T09:48:43;101494.34;;;21.96;58.87
73981;BME280;62348;51.412;5.436;2022-07-26T09:51:09;101494.53;;;22.34;56.22
73981;BME280;62348;51.412;5.436;2022-07-26T09:53:52;101507.69;;;22.46;57.49
73981;BME280;62348;51.412;5.436;2022-07-26T09:56:18;101511.09;;;22.26;56.46
73981;BME280;62348;51.412;5.436;2022-07-26T09:58:44;101519.91;;;21.96;56.60
73981;BME280;62348;51.412;5.436;2022-07-26T10:01:10;101511.47;;;21.75;58.01
73981;BME280;62348;51.412;5.436;2022-07-26T10:03:35;101510.94;;;21.56;58.31
73981;BME280;62348;51.412;5.436;2022-07-26T10:06:02;101509.47;;;21.50;58.75
73981;BME280;62348;51.412;5.436;2022-07-26T10:08:28;101517.78;;;21.27;58.73
73981;BME280;62348;51.412;5.436;2022-07-26T10:11:05;101521.91;;;21.16;59.72
73981;BME280;62348;51.412;5.436;2022-07-26T10:13:31;101526.94;;;21.14;59.78
73981;BME280;62348;51.412;5.436;2022-07-26T10:15:57;101524.41;;;20.95;60.10
73981;BME280;62348;51.412;5.436;2022-07-26T10:21:17;101531.38;;;21.01;59.83
73981;BME280;62348;51.412;5.436;2022-07-26T10:24:04;101537.91;;;20.82;59.62
73981;BME280;62348;51.412;5.436;2022-07-26T10:31:46;101537.91;;;20.82;59.91
73981;BME280;62348;51.412;5.436;2022-07-26T10:34:37;101553.28;;;20.83;60.30
73981;BME280;62348;51.412;5.436;2022-07-26T10:37:19;101568.03;;;20.51;64.03
73981;BME280;62348;51.412;5.436;2022-07-26T10:39:45;101565.25;;;20.28;66.81
73981;BME280;62348;51.412;5.436;2022-07-26T10:42:10;101568.75;;;20.06;67.90
73981;BME280;62348;51.412;5.436;2022-07-26T10:44:40;101574.75;;;19.95;68.90
73981;BME280;62348;51.412;5.436;2022-07-26T10:49:44;101575.69;;;19.76;69.18
73981;BME280;62348;51.412;5.436;2022-07-26T10:52:18;101582.97;;;19.53;70.77
73981;BME280;62348;51.412;5.436;2022-07-26T10:57:27;101591.53;;;19.65;70.40
73981;BME280;62348;51.412;5.436;2022-07-26T10:59:53;101582.75;;;19.63;69.79
73981;BME280;62348;51.412;5.436;2022-07-26T11:02:24;101583.78;;;19.67;70.38
73981;BME280;62348;51.412;5.436;2022-07-26T11:05:00;101589.31;;;19.81;69.38
73981;BME280;62348;51.412;5.436;2022-07-26T11:07:27;101587.28;;;19.87;71.81
73981;BME280;62348;51.412;5.436;2022-07-26T11:10:00;101585.50;;;20.05;70.06
73981;BME280;62348;51.412;5.436;2022-07-26T11:12:26;101586.00;;;20.21;68.28
73981;BME280;62348;51.412;5.436;2022-07-26T11:14:52;101578.09;;;20.19;67.07
73981;BME280;62348;51.412;5.436;2022-07-26T11:17:29;101586.56;;;20.32;67.29
73981;BME280;62348;51.412;5.436;2022-07-26T11:19:55;101590.78;;;20.29;66.48
73981;BME280;62348;51.412;5.436;2022-07-26T11:22:21;101587.97;;;20.43;65.97
73981;BME280;62348;51.412;5.436;2022-07-26T11:24:55;101590.69;;;20.57;65.59
73981;BME280;62348;51.412;5.436;2022-07-26T11:27:20;101589.69;;;20.66;66.04
73981;BME280;62348;51.412;5.436;2022-07-26T11:29:45;101587.31;;;20.74;64.06
73981;BME280;62348;51.412;5.436;2022-07-26T11:32:21;101585.69;;;20.73;63.68
73981;BME280;62348;51.412;5.436;2022-07-26T11:34:46;101591.97;;;20.73;63.61
73981;BME280;62348;51.412;5.436;2022-07-26T11:37:13;101599.06;;;20.52;61.85
73981;BME280;62348;51.412;5.436;2022-07-26T11:39:38;101609.44;;;20.41;63.05
73981;BME280;62348;51.412;5.436;2022-07-26T11:42:11;101610.72;;;20.21;62.96
73981;BME280;62348;51.412;5.436;2022-07-26T11:44:43;101615.94;;;19.95;64.03
73981;BME280;62348;51.412;5.436;2022-07-26T11:47:13;101609.31;;;19.82;64.07
73981;BME280;62348;51.412;5.436;2022-07-26T11:49:39;101621.69;;;19.65;65.44
73981;BME280;62348;51.412;5.436;2022-07-26T11:52:05;101621.16;;;19.49;66.14
73981;BME280;62348;51.412;5.436;2022-07-26T11:54:32;101621.50;;;19.29;68.02
73981;BME280;62348;51.412;5.436;2022-07-26T11:57:06;101618.16;;;19.18;68.28
73981;BME280;62348;51.412;5.436;2022-07-26T11:59:34;101622.38;;;19.10;69.87
73981;BME280;62348;51.412;5.436;2022-07-26T12:02:02;101623.88;;;19.03;70.57
73981;BME280;62348;51.412;5.436;2022-07-26T12:04:33;101620.94;;;18.99;70.10
73981;BME280;62348;51.412;5.436;2022-07-26T12:07:00;101623.06;;;19.02;71.78
73981;BME280;62348;51.412;5.436;2022-07-26T12:09:37;101622.16;;;19.07;70.54
73981;BME280;62348;51.412;5.436;2022-07-26T12:12:05;101624.41;;;19.05;70.79
73981;BME280;62348;51.412;5.436;2022-07-26T12:14:33;101619.78;;;19.00;69.89
73981;BME280;62348;51.412;5.436;2022-07-26T12:17:12;101621.16;;;19.03;69.63
73981;BME280;62348;51.412;5.436;2022-07-26T12:19:38;101629.03;;;19.04;70.17
73981;BME280;62348;51.412;5.436;2022-07-26T12:22:13;101627.44;;;19.03;68.90
73981;BME280;62348;51.412;5.436;2022-07-26T12:29:33;101616.91;;;19.10;69.43
73981;BME280;62348;51.412;5.436;2022-07-26T12:32:08;101619.75;;;19.19;69.56
73981;BME280;62348;51.412;5.436;2022-07-26T12:34:35;101621.09;;;19.22;68.90
73981;BME280;62348;51.412;5.436;2022-07-26T12:37:11;101627.69;;;19.21;67.42
73981;BME280;62348;51.412;5.436;2022-07-26T12:39:37;101629.31;;;19.22;66.48
73981;BME280;62348;51.412;5.436;2022-07-26T12:42:26;101622.13;;;19.26;66.64
73981;BME280;62348;51.412;5.436;2022-07-26T12:44:52;101623.84;;;19.22;65.78
73981;BME280;62348;51.412;5.436;2022-07-26T12:47:18;101620.78;;;19.23;66.00
73981;BME280;62348;51.412;5.436;2022-07-26T12:49:43;101619.16;;;19.22;65.09
73981;BME280;62348;51.412;5.436;2022-07-26T12:52:13;101614.41;;;19.28;65.20
73981;BME280;62348;51.412;5.436;2022-07-26T12:54:39;101625.59;;;19.31;64.23
73981;BME280;62348;51.412;5.436;2022-07-26T12:57:05;101622.84;;;19.31;63.69
73981;BME280;62348;51.412;5.436;2022-07-26T12:59:30;101624.56;;;19.27;62.20
73981;BME280;62348;51.412;5.436;2022-07-26T13:01:56;101618.25;;;19.27;63.34
73981;BME280;62348;51.412;5.436;2022-07-26T13:04:21;101627.31;;;19.27;62.68
73981;BME280;62348;51.412;5.436;2022-07-26T13:06:47;101622.75;;;19.37;62.93
73981;BME280;62348;51.412;5.436;2022-07-26T13:09:12;101623.78;;;19.41;63.93